sensor_id;sensor_type;location;lat;lon;timestamp;pressure;altitude;pressure_sealevel;temperature
68510;BMP180;55512;50.102;19.958;2023-06-10T00:01:53;98428.20;;;17.40
68510;BMP180;55512;50.102;19.958;2023-06-10T00:04:26;98423.00;;;17.40
68510;BMP180;55512;50.102;19.958;2023-06-10T00:06:52;98427.20;;;17.40
68510;BMP180;55512;50.102;19.958;2023-06-10T00:09:19;98430.20;;;17.40
68510;BMP180;55512;50.102;19.958;2023-06-10T00:11:47;98432.20;;;17.40
68510;BMP180;55512;50.102;19.958;2023-06-10T00:14:13;98437.00;;;17.40
68510;BMP180;55512;50.102;19.958;2023-06-10T00:16:39;98439.60;;;17.40
68510;BMP180;55512;50.102;19.958;2023-06-10T00:19:05;98437.20;;;17.40
68510;BMP180;55512;50.102;19.958;2023-06-10T00:21:33;98435.60;;;17.30
68510;BMP180;55512;50.102;19.958;2023-06-10T00:24:07;98435.80;;;17.30
68510;BMP180;55512;50.102;19.958;2023-06-10T00:26:37;98436.40;;;17.30
68510;BMP180;55512;50.102;19.958;2023-06-10T00:29:02;98441.40;;;17.20
68510;BMP180;55512;50.102;19.958;2023-06-10T00:31:27;98442.60;;;17.20
68510;BMP180;55512;50.102;19.958;2023-06-10T00:33:53;98437.20;;;17.20
68510;BMP180;55512;50.102;19.958;2023-06-10T00:36:19;98440.20;;;17.20
68510;BMP180;55512;50.102;19.958;2023-06-10T00:38:44;98440.40;;;17.20
68510;BMP180;55512;50.102;19.958;2023-06-10T00:41:10;98441.40;;;17.20
68510;BMP180;55512;50.102;19.958;2023-06-10T00:43:35;98441.80;;;17.20
68510;BMP180;55512;50.102;19.958;2023-06-10T00:46:01;98437.80;;;17.20
68510;BMP180;55512;50.102;19.958;2023-06-10T00:48:27;98439.80;;;17.20
68510;BMP180;55512;50.102;19.958;2023-06-10T00:50:54;98439.40;;;17.20
68510;BMP180;55512;50.102;19.958;2023-06-10T00:53:21;98441.00;;;17.20
68510;BMP180;55512;50.102;19.958;2023-06-10T00:55:47;98439.80;;;17.20
68510;BMP180;55512;50.102;19.958;2023-06-10T00:58:13;98442.20;;;17.20
68510;BMP180;55512;50.102;19.958;2023-06-10T01:00:39;98445.60;;;17.20
68510;BMP180;55512;50.102;19.958;2023-06-10T01:03:04;98446.00;;;17.20
68510;BMP180;55512;50.102;19.958;2023-06-10T01:05:34;98445.60;;;17.20
68510;BMP180;55512;50.102;19.958;2023-06-10T01:08:18;98445.20;;;17.20
68510;BMP180;55512;50.102;19.958;2023-06-10T01:10:52;98446.20;;;17.20
68510;BMP180;55512;50.102;19.958;2023-06-10T01:13:19;98447.40;;;17.22
68510;BMP180;55512;50.102;19.958;2023-06-10T01:15:50;98449.20;;;17.28
68510;BMP180;55512;50.102;19.958;2023-06-10T01:18:16;98449.40;;;17.30
68510;BMP180;55512;50.102;19.958;2023-06-10T01:20:44;98449.60;;;17.30
68510;BMP180;55512;50.102;19.958;2023-06-10T01:23:11;98447.80;;;17.30
68510;BMP180;55512;50.102;19.958;2023-06-10T01:26:02;98449.20;;;17.22
68510;BMP180;55512;50.102;19.958;2023-06-10T01:28:59;98451.60;;;17.20
68510;BMP180;55512;50.102;19.958;2023-06-10T01:31:44;98451.00;;;17.20
68510;BMP180;55512;50.102;19.958;2023-06-10T01:34:17;98446.40;;;17.20
68510;BMP180;55512;50.102;19.958;2023-06-10T01:36:47;98451.20;;;17.20
68510;BMP180;55512;50.102;19.958;2023-06-10T01:39:16;98448.80;;;17.20
68510;BMP180;55512;50.102;19.958;2023-06-10T01:41:43;98448.60;;;17.20
68510;BMP180;55512;50.102;19.958;2023-06-10T01:44:10;98453.80;;;17.20
68510;BMP180;55512;50.102;19.958;2023-06-10T01:46:35;98457.20;;;17.20
68510;BMP180;55512;50.102;19.958;2023-06-10T01:49:01;98454.00;;;17.20
68510;BMP180;55512;50.102;19.958;2023-06-10T01:51:27;98458.00;;;17.20
68510;BMP180;55512;50.102;19.958;2023-06-10T01:53:52;98454.40;;;17.12
68510;BMP180;55512;50.102;19.958;2023-06-10T01:56:18;98455.60;;;17.12
68510;BMP180;55512;50.102;19.958;2023-06-10T01:58:46;98460.40;;;17.12
68510;BMP180;55512;50.102;19.958;2023-06-10T02:01:12;98459.80;;;17.12
68510;BMP180;55512;50.102;19.958;2023-06-10T02:03:37;98458.80;;;17.16
68510;BMP180;55512;50.102;19.958;2023-06-10T02:06:03;98458.00;;;17.12
68510;BMP180;55512;50.102;19.958;2023-06-10T02:08:29;98455.00;;;17.16
68510;BMP180;55512;50.102;19.958;2023-06-10T02:10:54;98455.20;;;17.20
68510;BMP180;55512;50.102;19.958;2023-06-10T02:13:20;98451.40;;;17.10
68510;BMP180;55512;50.102;19.958;2023-06-10T02:15:45;98455.60;;;17.00
68510;BMP180;55512;50.102;19.958;2023-06-10T02:18:10;98450.60;;;17.00
68510;BMP180;55512;50.102;19.958;2023-06-10T02:20:38;98450.80;;;17.02
68510;BMP180;55512;50.102;19.958;2023-06-10T02:23:03;98450.20;;;17.00
68510;BMP180;55512;50.102;19.958;2023-06-10T02:25:29;98448.40;;;17.02
68510;BMP180;55512;50.102;19.958;2023-06-10T02:27:54;98446.80;;;17.10
68510;BMP180;55512;50.102;19.958;2023-06-10T02:30:20;98446.60;;;17.10
68510;BMP180;55512;50.102;19.958;2023-06-10T02:32:45;98444.00;;;17.10
68510;BMP180;55512;50.102;19.958;2023-06-10T02:35:14;98444.60;;;17.10
68510;BMP180;55512;50.102;19.958;2023-06-10T02:37:40;98449.20;;;17.10
68510;BMP180;55512;50.102;19.958;2023-06-10T02:40:07;98449.00;;;17.10
68510;BMP180;55512;50.102;19.958;2023-06-10T02:42:32;98452.80;;;17.10
68510;BMP180;55512;50.102;19.958;2023-06-10T02:44:58;98452.40;;;17.12
68510;BMP180;55512;50.102;19.958;2023-06-10T02:47:23;98455.20;;;17.18
68510;BMP180;55512;50.102;19.958;2023-06-10T02:49:48;98460.20;;;17.20
68510;BMP180;55512;50.102;19.958;2023-06-10T02:52:14;98464.00;;;17.20
68510;BMP180;55512;50.102;19.958;2023-06-10T02:54:39;98466.40;;;17.20
68510;BMP180;55512;50.102;19.958;2023-06-10T02:57:05;98470.20;;;17.20
68510;BMP180;55512;50.102;19.958;2023-06-10T02:59:31;98472.00;;;17.20
68510;BMP180;55512;50.102;19.958;2023-06-10T03:01:57;98473.20;;;17.30
68510;BMP180;55512;50.102;19.958;2023-06-10T03:04:23;98472.40;;;17.30
68510;BMP180;55512;50.102;19.958;2023-06-10T03:06:50;98474.60;;;17.30
68510;BMP180;55512;50.102;19.958;2023-06-10T03:09:16;98472.80;;;17.30
68510;BMP180;55512;50.102;19.958;2023-06-10T03:11:41;98476.00;;;17.30
68510;BMP180;55512;50.102;19.958;2023-06-10T03:14:06;98477.20;;;17.40
68510;BMP180;55512;50.102;19.958;2023-06-10T03:16:32;98476.80;;;17.40
68510;BMP180;55512;50.102;19.958;2023-06-10T03:18:57;98479.20;;;17.40
68510;BMP180;55512;50.102;19.958;2023-06-10T03:21:23;98481.40;;;17.40
68510;BMP180;55512;50.102;19.958;2023-06-10T03:23:48;98482.80;;;17.50
68510;BMP180;55512;50.102;19.958;2023-06-10T03:26:14;98485.00;;;17.50
68510;BMP180;55512;50.102;19.958;2023-06-10T03:28:41;98492.80;;;17.50
68510;BMP180;55512;50.102;19.958;2023-06-10T03:31:06;98490.00;;;17.60
68510;BMP180;55512;50.102;19.958;2023-06-10T03:33:32;98488.20;;;17.60
68510;BMP180;55512;50.102;19.958;2023-06-10T03:35:58;98490.00;;;17.60
68510;BMP180;55512;50.102;19.958;2023-06-10T03:38:24;98487.80;;;17.60
68510;BMP180;55512;50.102;19.958;2023-06-10T03:40:50;98484.60;;;17.60
68510;BMP180;55512;50.102;19.958;2023-06-10T03:43:15;98483.20;;;17.66
68510;BMP180;55512;50.102;19.958;2023-06-10T03:45:40;98486.60;;;17.70
68510;BMP180;55512;50.102;19.958;2023-06-10T03:48:07;98490.60;;;17.70
68510;BMP180;55512;50.102;19.958;2023-06-10T03:50:34;98493.60;;;17.72
68510;BMP180;55512;50.102;19.958;2023-06-10T03:52:59;98493.20;;;17.80
68510;BMP180;55512;50.102;19.958;2023-06-10T03:55:25;98498.40;;;17.80
68510;BMP180;55512;50.102;19.958;2023-06-10T03:57:51;98501.20;;;17.80
68510;BMP180;55512;50.102;19.958;2023-06-10T04:00:17;98502.00;;;17.80
68510;BMP180;55512;50.102;19.958;2023-06-10T04:02:45;98496.00;;;17.80
68510;BMP180;55512;50.102;19.958;2023-06-10T04:05:13;98507.00;;;17.90
68510;BMP180;55512;50.102;19.958;2023-06-10T04:07:39;98507.20;;;17.90
68510;BMP180;55512;50.102;19.958;2023-06-10T04:10:10;98511.20;;;17.90
68510;BMP180;55512;50.102;19.958;2023-06-10T04:12:37;98510.00;;;17.90
68510;BMP180;55512;50.102;19.958;2023-06-10T04:15:04;98511.80;;;17.96
68510;BMP180;55512;50.102;19.958;2023-06-10T04:17:30;98511.20;;;18.00
68510;BMP180;55512;50.102;19.958;2023-06-10T04:19:56;98513.20;;;18.00
68510;BMP180;55512;50.102;19.958;2023-06-10T04:22:22;98513.40;;;18.08
68510;BMP180;55512;50.102;19.958;2023-06-10T04:24:48;98509.60;;;18.10
68510;BMP180;55512;50.102;19.958;2023-06-10T04:27:14;98510.80;;;18.10
68510;BMP180;55512;50.102;19.958;2023-06-10T04:29:39;98511.60;;;18.20
68510;BMP180;55512;50.102;19.958;2023-06-10T04:32:05;98508.60;;;18.20
68510;BMP180;55512;50.102;19.958;2023-06-10T04:34:33;98507.00;;;18.24
68510;BMP180;55512;50.102;19.958;2023-06-10T04:36:59;98508.60;;;18.30
68510;BMP180;55512;50.102;19.958;2023-06-10T04:39:24;98513.60;;;18.38
68510;BMP180;55512;50.102;19.958;2023-06-10T04:41:50;98518.00;;;18.40
68510;BMP180;55512;50.102;19.958;2023-06-10T04:44:15;98522.20;;;18.40
68510;BMP180;55512;50.102;19.958;2023-06-10T04:46:40;98522.20;;;18.40
68510;BMP180;55512;50.102;19.958;2023-06-10T04:49:06;98522.80;;;18.40
68510;BMP180;55512;50.102;19.958;2023-06-10T04:51:31;98525.60;;;18.40
68510;BMP180;55512;50.102;19.958;2023-06-10T04:53:58;98525.20;;;18.40
68510;BMP180;55512;50.102;19.958;2023-06-10T04:56:25;98530.40;;;18.50
68510;BMP180;55512;50.102;19.958;2023-06-10T04:58:50;98530.00;;;18.50
68510;BMP180;55512;50.102;19.958;2023-06-10T05:01:16;98536.80;;;18.60
68510;BMP180;55512;50.102;19.958;2023-06-10T05:03:41;98537.80;;;18.68
68510;BMP180;55512;50.102;19.958;2023-06-10T05:06:07;98538.40;;;18.70
68510;BMP180;55512;50.102;19.958;2023-06-10T05:08:33;98545.20;;;18.76
68510;BMP180;55512;50.102;19.958;2023-06-10T05:10:58;98548.40;;;18.80
68510;BMP180;55512;50.102;19.958;2023-06-10T05:13:24;98550.00;;;18.86
68510;BMP180;55512;50.102;19.958;2023-06-10T05:15:49;98549.20;;;18.90
68510;BMP180;55512;50.102;19.958;2023-06-10T05:18:15;98549.00;;;18.90
68510;BMP180;55512;50.102;19.958;2023-06-10T05:20:40;98554.20;;;19.00
68510;BMP180;55512;50.102;19.958;2023-06-10T05:23:06;98553.20;;;19.00
68510;BMP180;55512;50.102;19.958;2023-06-10T05:25:33;98554.20;;;19.00
68510;BMP180;55512;50.102;19.958;2023-06-10T05:27:59;98554.80;;;19.10
68510;BMP180;55512;50.102;19.958;2023-06-10T05:30:24;98550.00;;;19.10
68510;BMP180;55512;50.102;19.958;2023-06-10T05:32:51;98548.80;;;19.20
68510;BMP180;55512;50.102;19.958;2023-06-10T05:35:18;98556.40;;;19.20
68510;BMP180;55512;50.102;19.958;2023-06-10T05:37:44;98553.80;;;19.30
68510;BMP180;55512;50.102;19.958;2023-06-10T05:40:11;98551.80;;;19.30
68510;BMP180;55512;50.102;19.958;2023-06-10T05:42:36;98556.20;;;19.48
68510;BMP180;55512;50.102;19.958;2023-06-10T05:45:03;98553.60;;;19.60
68510;BMP180;55512;50.102;19.958;2023-06-10T05:47:29;98562.00;;;19.70
68510;BMP180;55512;50.102;19.958;2023-06-10T05:49:54;98564.40;;;19.80
68510;BMP180;55512;50.102;19.958;2023-06-10T05:52:20;98560.60;;;19.90
68510;BMP180;55512;50.102;19.958;2023-06-10T05:54:45;98566.40;;;20.10
68510;BMP180;55512;50.102;19.958;2023-06-10T05:57:11;98570.20;;;20.20
68510;BMP180;55512;50.102;19.958;2023-06-10T05:59:36;98574.80;;;20.30
68510;BMP180;55512;50.102;19.958;2023-06-10T06:02:02;98572.00;;;20.40
68510;BMP180;55512;50.102;19.958;2023-06-10T06:04:28;98570.40;;;20.40
68510;BMP180;55512;50.102;19.958;2023-06-10T06:06:53;98574.60;;;20.50
68510;BMP180;55512;50.102;19.958;2023-06-10T06:09:19;98574.80;;;20.60
68510;BMP180;55512;50.102;19.958;2023-06-10T06:11:44;98573.40;;;20.62
68510;BMP180;55512;50.102;19.958;2023-06-10T06:14:10;98577.80;;;20.70
68510;BMP180;55512;50.102;19.958;2023-06-10T06:16:35;98571.80;;;20.80
68510;BMP180;55512;50.102;19.958;2023-06-10T06:19:01;98573.00;;;20.80
68510;BMP180;55512;50.102;19.958;2023-06-10T06:21:26;98573.00;;;20.90
68510;BMP180;55512;50.102;19.958;2023-06-10T06:23:51;98571.20;;;21.00
68510;BMP180;55512;50.102;19.958;2023-06-10T06:26:17;98570.20;;;21.00
68510;BMP180;55512;50.102;19.958;2023-06-10T06:28:42;98568.20;;;21.00
68510;BMP180;55512;50.102;19.958;2023-06-10T06:31:08;98567.00;;;21.00
68510;BMP180;55512;50.102;19.958;2023-06-10T06:33:33;98578.40;;;21.10
68510;BMP180;55512;50.102;19.958;2023-06-10T06:35:59;98580.40;;;21.10
68510;BMP180;55512;50.102;19.958;2023-06-10T06:38:26;98579.00;;;21.10
68510;BMP180;55512;50.102;19.958;2023-06-10T06:40:51;98581.40;;;21.10
68510;BMP180;55512;50.102;19.958;2023-06-10T06:43:17;98584.40;;;21.10
68510;BMP180;55512;50.102;19.958;2023-06-10T06:45:44;98582.60;;;21.10
68510;BMP180;55512;50.102;19.958;2023-06-10T06:48:11;98591.80;;;21.10
68510;BMP180;55512;50.102;19.958;2023-06-10T06:50:37;98598.40;;;21.16
68510;BMP180;55512;50.102;19.958;2023-06-10T06:53:03;98605.60;;;21.20
68510;BMP180;55512;50.102;19.958;2023-06-10T06:55:28;98608.40;;;21.30
68510;BMP180;55512;50.102;19.958;2023-06-10T06:57:54;98609.80;;;21.40
68510;BMP180;55512;50.102;19.958;2023-06-10T07:00:20;98609.00;;;21.40
68510;BMP180;55512;50.102;19.958;2023-06-10T07:02:45;98609.00;;;21.50
68510;BMP180;55512;50.102;19.958;2023-06-10T07:05:10;98610.40;;;21.56
68510;BMP180;55512;50.102;19.958;2023-06-10T07:07:36;98610.20;;;21.68
68510;BMP180;55512;50.102;19.958;2023-06-10T07:10:01;98608.00;;;21.70
68510;BMP180;55512;50.102;19.958;2023-06-10T07:12:27;98613.60;;;21.80
68510;BMP180;55512;50.102;19.958;2023-06-10T07:14:52;98619.00;;;21.90
68510;BMP180;55512;50.102;19.958;2023-06-10T07:17:18;98621.00;;;21.90
68510;BMP180;55512;50.102;19.958;2023-06-10T07:19:45;98623.80;;;21.90
68510;BMP180;55512;50.102;19.958;2023-06-10T07:22:11;98625.20;;;21.90
68510;BMP180;55512;50.102;19.958;2023-06-10T07:24:36;98626.40;;;22.00
68510;BMP180;55512;50.102;19.958;2023-06-10T07:27:02;98628.60;;;22.00
68510;BMP180;55512;50.102;19.958;2023-06-10T07:29:27;98633.40;;;22.00
68510;BMP180;55512;50.102;19.958;2023-06-10T07:31:53;98629.80;;;22.00
68510;BMP180;55512;50.102;19.958;2023-06-10T07:34:18;98634.40;;;22.04
68510;BMP180;55512;50.102;19.958;2023-06-10T07:36:44;98630.60;;;22.10
68510;BMP180;55512;50.102;19.958;2023-06-10T07:39:10;98627.00;;;22.10
68510;BMP180;55512;50.102;19.958;2023-06-10T07:41:36;98628.00;;;22.10
68510;BMP180;55512;50.102;19.958;2023-06-10T07:44:02;98632.80;;;22.10
68510;BMP180;55512;50.102;19.958;2023-06-10T07:46:27;98634.80;;;22.14
68510;BMP180;55512;50.102;19.958;2023-06-10T07:48:54;98637.40;;;22.16
68510;BMP180;55512;50.102;19.958;2023-06-10T07:51:21;98635.20;;;22.20
68510;BMP180;55512;50.102;19.958;2023-06-10T07:53:47;98632.40;;;22.20
68510;BMP180;55512;50.102;19.958;2023-06-10T07:56:12;98633.20;;;22.20
68510;BMP180;55512;50.102;19.958;2023-06-10T07:58:38;98639.80;;;22.20
68510;BMP180;55512;50.102;19.958;2023-06-10T08:01:03;98641.80;;;22.28
68510;BMP180;55512;50.102;19.958;2023-06-10T08:03:29;98639.80;;;22.30
68510;BMP180;55512;50.102;19.958;2023-06-10T08:05:55;98642.40;;;22.30
68510;BMP180;55512;50.102;19.958;2023-06-10T08:08:20;98639.60;;;22.40
68510;BMP180;55512;50.102;19.958;2023-06-10T08:10:46;98635.60;;;22.40
68510;BMP180;55512;50.102;19.958;2023-06-10T08:13:12;98633.60;;;22.40
68510;BMP180;55512;50.102;19.958;2023-06-10T08:15:37;98644.60;;;22.40
68510;BMP180;55512;50.102;19.958;2023-06-10T08:18:03;98645.60;;;22.50
68510;BMP180;55512;50.102;19.958;2023-06-10T08:20:28;98648.20;;;22.42
68510;BMP180;55512;50.102;19.958;2023-06-10T08:22:54;98643.40;;;22.40
68510;BMP180;55512;50.102;19.958;2023-06-10T08:25:19;98650.40;;;22.40
68510;BMP180;55512;50.102;19.958;2023-06-10T08:27:47;98649.00;;;22.50
68510;BMP180;55512;50.102;19.958;2023-06-10T08:30:13;98645.60;;;22.60
68510;BMP180;55512;50.102;19.958;2023-06-10T08:32:38;98646.20;;;22.70
68510;BMP180;55512;50.102;19.958;2023-06-10T08:35:04;98650.60;;;22.80
68510;BMP180;55512;50.102;19.958;2023-06-10T08:37:30;98651.00;;;22.82
68510;BMP180;55512;50.102;19.958;2023-06-10T08:39:56;98649.60;;;22.90
68510;BMP180;55512;50.102;19.958;2023-06-10T08:42:28;98652.20;;;23.00
68510;BMP180;55512;50.102;19.958;2023-06-10T08:45:01;98645.20;;;23.00
68510;BMP180;55512;50.102;19.958;2023-06-10T08:47:30;98645.00;;;23.10
68510;BMP180;55512;50.102;19.958;2023-06-10T08:50:03;98643.60;;;23.14
68510;BMP180;55512;50.102;19.958;2023-06-10T08:52:36;98650.60;;;23.20
68510;BMP180;55512;50.102;19.958;2023-06-10T08:55:29;98642.40;;;23.30
68510;BMP180;55512;50.102;19.958;2023-06-10T08:57:56;98651.00;;;23.40
68510;BMP180;55512;50.102;19.958;2023-06-10T09:00:22;98654.60;;;23.54
68510;BMP180;55512;50.102;19.958;2023-06-10T09:02:49;98649.20;;;23.70
68510;BMP180;55512;50.102;19.958;2023-06-10T09:05:16;98651.00;;;23.80
68510;BMP180;55512;50.102;19.958;2023-06-10T09:07:42;98650.00;;;23.90
68510;BMP180;55512;50.102;19.958;2023-06-10T09:10:08;98656.00;;;24.00
68510;BMP180;55512;50.102;19.958;2023-06-10T09:12:34;98650.00;;;24.10
68510;BMP180;55512;50.102;19.958;2023-06-10T09:15:01;98651.80;;;24.10
68510;BMP180;55512;50.102;19.958;2023-06-10T09:17:28;98651.40;;;24.20
68510;BMP180;55512;50.102;19.958;2023-06-10T09:19:54;98654.00;;;24.18
68510;BMP180;55512;50.102;19.958;2023-06-10T09:22:23;98657.40;;;24.00
68510;BMP180;55512;50.102;19.958;2023-06-10T09:24:49;98654.60;;;23.80
68510;BMP180;55512;50.102;19.958;2023-06-10T09:27:15;98655.60;;;23.88
68510;BMP180;55512;50.102;19.958;2023-06-10T09:29:51;98655.00;;;24.00
68510;BMP180;55512;50.102;19.958;2023-06-10T09:32:18;98655.80;;;24.04
68510;BMP180;55512;50.102;19.958;2023-06-10T09:34:44;98663.00;;;24.18
68510;BMP180;55512;50.102;19.958;2023-06-10T09:37:11;98657.00;;;24.20
68510;BMP180;55512;50.102;19.958;2023-06-10T09:39:42;98662.40;;;24.30
68510;BMP180;55512;50.102;19.958;2023-06-10T09:42:18;98655.00;;;24.42
68510;BMP180;55512;50.102;19.958;2023-06-10T09:44:51;98665.20;;;24.50
68510;BMP180;55512;50.102;19.958;2023-06-10T09:47:21;98662.20;;;24.60
68510;BMP180;55512;50.102;19.958;2023-06-10T09:49:48;98660.80;;;24.70
68510;BMP180;55512;50.102;19.958;2023-06-10T09:52:14;98664.80;;;24.70
68510;BMP180;55512;50.102;19.958;2023-06-10T09:54:39;98665.20;;;24.36
68510;BMP180;55512;50.102;19.958;2023-06-10T09:57:08;98667.00;;;24.20
68510;BMP180;55512;50.102;19.958;2023-06-10T09:59:37;98666.60;;;24.00
68510;BMP180;55512;50.102;19.958;2023-06-10T10:02:03;98666.20;;;23.90
68510;BMP180;55512;50.102;19.958;2023-06-10T10:04:29;98672.60;;;23.96
68510;BMP180;55512;50.102;19.958;2023-06-10T10:06:55;98672.40;;;24.10
68510;BMP180;55512;50.102;19.958;2023-06-10T10:09:20;98667.20;;;24.20
68510;BMP180;55512;50.102;19.958;2023-06-10T10:11:48;98671.20;;;24.22
68510;BMP180;55512;50.102;19.958;2023-06-10T10:14:14;98666.80;;;24.10
68510;BMP180;55512;50.102;19.958;2023-06-10T10:16:43;98664.80;;;24.00
68510;BMP180;55512;50.102;19.958;2023-06-10T10:19:31;98666.60;;;23.90
68510;BMP180;55512;50.102;19.958;2023-06-10T10:22:06;98673.40;;;23.80
68510;BMP180;55512;50.102;19.958;2023-06-10T10:24:39;98674.40;;;23.80
68510;BMP180;55512;50.102;19.958;2023-06-10T10:27:27;98674.20;;;23.90
68510;BMP180;55512;50.102;19.958;2023-06-10T10:29:57;98679.60;;;24.00
68510;BMP180;55512;50.102;19.958;2023-06-10T10:32:57;98682.80;;;24.04
68510;BMP180;55512;50.102;19.958;2023-06-10T10:35:24;98678.00;;;24.00
68510;BMP180;55512;50.102;19.958;2023-06-10T10:37:54;98680.00;;;23.90
68510;BMP180;55512;50.102;19.958;2023-06-10T10:40:22;98680.40;;;23.80
68510;BMP180;55512;50.102;19.958;2023-06-10T10:42:52;98680.20;;;23.80
68510;BMP180;55512;50.102;19.958;2023-06-10T10:45:18;98688.00;;;23.80
68510;BMP180;55512;50.102;19.958;2023-06-10T10:47:46;98681.40;;;23.80
68510;BMP180;55512;50.102;19.958;2023-06-10T10:50:20;98678.20;;;23.80
68510;BMP180;55512;50.102;19.958;2023-06-10T10:53:01;98676.20;;;23.90
68510;BMP180;55512;50.102;19.958;2023-06-10T10:55:28;98677.60;;;24.00
68510;BMP180;55512;50.102;19.958;2023-06-10T10:57:56;98675.80;;;24.10
68510;BMP180;55512;50.102;19.958;2023-06-10T11:00:36;98667.20;;;24.10
68510;BMP180;55512;50.102;19.958;2023-06-10T11:05:48;98659.60;;;24.20
68510;BMP180;55512;50.102;19.958;2023-06-10T11:08:45;98668.40;;;24.24
68510;BMP180;55512;50.102;19.958;2023-06-10T11:11:17;98666.00;;;24.20
68510;BMP180;55512;50.102;19.958;2023-06-10T11:13:59;98667.20;;;24.30
68510;BMP180;55512;50.102;19.958;2023-06-10T11:16:41;98663.80;;;24.40
68510;BMP180;55512;50.102;19.958;2023-06-10T11:19:07;98660.20;;;24.48
68510;BMP180;55512;50.102;19.958;2023-06-10T11:21:57;98657.80;;;24.60
68510;BMP180;55512;50.102;19.958;2023-06-10T11:24:24;98661.60;;;24.70
68510;BMP180;55512;50.102;19.958;2023-06-10T11:26:50;98659.20;;;24.80
68510;BMP180;55512;50.102;19.958;2023-06-10T11:29:15;98658.80;;;24.58
68510;BMP180;55512;50.102;19.958;2023-06-10T11:31:49;98660.40;;;24.40
68510;BMP180;55512;50.102;19.958;2023-06-10T11:34:21;98661.60;;;24.30
68510;BMP180;55512;50.102;19.958;2023-06-10T11:36:49;98664.00;;;24.30
68510;BMP180;55512;50.102;19.958;2023-06-10T11:39:14;98662.20;;;24.20
68510;BMP180;55512;50.102;19.958;2023-06-10T11:41:40;98667.80;;;24.10
68510;BMP180;55512;50.102;19.958;2023-06-10T11:44:13;98664.00;;;24.10
68510;BMP180;55512;50.102;19.958;2023-06-10T11:46:40;98664.60;;;24.20
68510;BMP180;55512;50.102;19.958;2023-06-10T11:49:08;98664.40;;;24.20
68510;BMP180;55512;50.102;19.958;2023-06-10T11:51:38;98671.40;;;24.30
68510;BMP180;55512;50.102;19.958;2023-06-10T11:54:08;98667.80;;;24.32
68510;BMP180;55512;50.102;19.958;2023-06-10T11:56:34;98668.40;;;24.48
68510;BMP180;55512;50.102;19.958;2023-06-10T11:59:05;98667.80;;;24.64
68510;BMP180;55512;50.102;19.958;2023-06-10T12:01:35;98664.40;;;24.82
68510;BMP180;55512;50.102;19.958;2023-06-10T12:04:07;98664.20;;;25.00
68510;BMP180;55512;50.102;19.958;2023-06-10T12:06:45;98659.60;;;25.20
68510;BMP180;55512;50.102;19.958;2023-06-10T12:12:01;98657.40;;;25.46
68510;BMP180;55512;50.102;19.958;2023-06-10T12:14:55;98653.40;;;25.60
68510;BMP180;55512;50.102;19.958;2023-06-10T12:17:35;98657.20;;;25.80
68510;BMP180;55512;50.102;19.958;2023-06-10T12:20:07;98654.20;;;25.86
68510;BMP180;55512;50.102;19.958;2023-06-10T12:22:43;98653.00;;;25.90
68510;BMP180;55512;50.102;19.958;2023-06-10T12:25:10;98658.00;;;26.00
68510;BMP180;55512;50.102;19.958;2023-06-10T12:27:37;98655.20;;;26.00
68510;BMP180;55512;50.102;19.958;2023-06-10T12:30:05;98654.60;;;25.84
68510;BMP180;55512;50.102;19.958;2023-06-10T12:32:46;98654.40;;;25.88
68510;BMP180;55512;50.102;19.958;2023-06-10T12:35:16;98651.20;;;26.00
68510;BMP180;55512;50.102;19.958;2023-06-10T12:37:57;98647.80;;;26.10
68510;BMP180;55512;50.102;19.958;2023-06-10T12:40:33;98649.00;;;26.24
68510;BMP180;55512;50.102;19.958;2023-06-10T12:42:59;98648.60;;;26.40
68510;BMP180;55512;50.102;19.958;2023-06-10T12:45:34;98646.00;;;26.50
68510;BMP180;55512;50.102;19.958;2023-06-10T12:48:24;98651.60;;;26.60
68510;BMP180;55512;50.102;19.958;2023-06-10T12:50:58;98649.00;;;26.70
68510;BMP180;55512;50.102;19.958;2023-06-10T12:53:25;98644.60;;;26.78
68510;BMP180;55512;50.102;19.958;2023-06-10T12:55:54;98644.00;;;26.88
68510;BMP180;55512;50.102;19.958;2023-06-10T12:58:21;98649.60;;;27.00
68510;BMP180;55512;50.102;19.958;2023-06-10T13:00:47;98645.60;;;27.10
68510;BMP180;55512;50.102;19.958;2023-06-10T13:03:14;98649.80;;;27.14
68510;BMP180;55512;50.102;19.958;2023-06-10T13:05:39;98646.60;;;27.30
68510;BMP180;55512;50.102;19.958;2023-06-10T13:08:06;98649.40;;;27.40
68510;BMP180;55512;50.102;19.958;2023-06-10T13:10:33;98643.60;;;27.50
68510;BMP180;55512;50.102;19.958;2023-06-10T13:13:00;98648.40;;;27.62
68510;BMP180;55512;50.102;19.958;2023-06-10T13:15:26;98637.40;;;27.80
68510;BMP180;55512;50.102;19.958;2023-06-10T13:17:52;98641.60;;;27.90
68510;BMP180;55512;50.102;19.958;2023-06-10T13:20:18;98646.60;;;27.80
68510;BMP180;55512;50.102;19.958;2023-06-10T13:22:44;98648.80;;;27.80
68510;BMP180;55512;50.102;19.958;2023-06-10T13:25:10;98647.00;;;27.90
68510;BMP180;55512;50.102;19.958;2023-06-10T13:27:37;98647.00;;;28.00
68510;BMP180;55512;50.102;19.958;2023-06-10T13:30:09;98641.00;;;27.90
68510;BMP180;55512;50.102;19.958;2023-06-10T13:32:36;98646.00;;;28.00
68510;BMP180;55512;50.102;19.958;2023-06-10T13:35:02;98646.40;;;28.22
68510;BMP180;55512;50.102;19.958;2023-06-10T13:37:28;98647.20;;;28.42
68510;BMP180;55512;50.102;19.958;2023-06-10T13:39:54;98648.20;;;28.60
68510;BMP180;55512;50.102;19.958;2023-06-10T13:42:20;98650.80;;;28.80
68510;BMP180;55512;50.102;19.958;2023-06-10T13:44:47;98649.40;;;28.88
68510;BMP180;55512;50.102;19.958;2023-06-10T13:47:14;98643.20;;;28.90
68510;BMP180;55512;50.102;19.958;2023-06-10T13:49:40;98651.60;;;28.72
68510;BMP180;55512;50.102;19.958;2023-06-10T13:52:07;98649.80;;;26.96
68510;BMP180;55512;50.102;19.958;2023-06-10T13:54:33;98648.60;;;25.88
68510;BMP180;55512;50.102;19.958;2023-06-10T13:57:01;98651.80;;;24.96
68510;BMP180;55512;50.102;19.958;2023-06-10T13:59:27;98658.20;;;24.44
68510;BMP180;55512;50.102;19.958;2023-06-10T14:01:52;98653.60;;;24.26
68510;BMP180;55512;50.102;19.958;2023-06-10T14:04:18;98655.80;;;23.82
68510;BMP180;55512;50.102;19.958;2023-06-10T14:06:43;98648.40;;;23.40